createdAt,value
2018-11-10T01:29:47.392Z,23.57
2018-11-10T01:29:47.964Z,23.57
2018-11-10T01:29:48.563Z,23.47
2018-11-10T01:29:49.164Z,23.66
2018-11-10T01:29:49.763Z,23.66
2018-11-10T01:29:50.361Z,23.28
2018-11-10T01:29:50.962Z,23.75
2018-11-10T01:29:51.563Z,23.28
2018-11-10T01:30:45.019Z,23.57
2018-11-10T01:30:45.617Z,23.38
2018-11-10T01:30:46.216Z,23.38
2018-11-10T01:30:46.818Z,23.47
2018-11-10T01:30:47.416Z,23.57
2018-11-10T01:30:48.015Z,23.57
2018-11-10T01:30:48.615Z,23.47
2018-11-10T01:30:49.216Z,23.47
2018-11-10T01:31:43.695Z,23.57
2018-11-10T01:31:44.292Z,23.57
2018-11-10T01:31:44.890Z,23.57
2018-11-10T01:31:45.490Z,23.47
2018-11-10T01:31:46.095Z,23.47
2018-11-10T01:31:46.690Z,23.57
2018-11-10T01:31:47.288Z,23.57
2018-11-10T01:31:47.891Z,23.57
2018-11-10T01:32:41.353Z,23.57
2018-11-10T01:32:41.944Z,23.57
2018-11-10T01:32:42.544Z,23.57
2018-11-10T01:32:43.146Z,23.57
2018-11-10T01:32:43.744Z,23.47
2018-11-10T01:32:44.344Z,23.47
2018-11-10T01:32:44.944Z,23.57
2018-11-10T01:32:45.549Z,23.47
2018-11-10T01:33:40.060Z,23.28
2018-11-10T01:33:40.620Z,23.38
2018-11-10T01:33:41.220Z,23.28
2018-11-10T01:33:41.819Z,23.38
2018-11-10T01:33:42.419Z,23.19
2018-11-10T01:33:43.020Z,23.28
2018-11-10T01:33:43.619Z,23.38
2018-11-10T01:33:44.219Z,23.19
2018-11-10T01:34:38.699Z,23.38
2018-11-10T01:34:39.296Z,23.19
2018-11-10T01:34:39.896Z,23.38
2018-11-10T01:34:40.495Z,23.66
2018-11-10T01:34:41.094Z,23.38
2018-11-10T01:34:41.694Z,23.38
2018-11-10T01:34:42.296Z,23.28
2018-11-10T01:34:42.895Z,23.66
2018-11-10T01:35:37.383Z,23.19
2018-11-10T01:35:37.974Z,23.19
2018-11-10T01:35:38.572Z,23.38
2018-11-10T01:35:39.171Z,23.19
2018-11-10T01:35:39.773Z,23.19
2018-11-10T01:35:40.381Z,23.38
2018-11-10T01:35:40.991Z,23.28
2018-11-10T01:35:41.584Z,23.28
2018-11-10T01:36:36.051Z,23.66
2018-11-10T01:36:36.648Z,23.47
2018-11-10T01:36:37.248Z,23.57
2018-11-10T01:36:37.849Z,23.47
2018-11-10T01:36:38.448Z,23.47
2018-11-10T01:36:39.047Z,23.47
2018-11-10T01:36:39.648Z,23.47
2018-11-10T01:36:40.247Z,23.47
2018-11-10T01:37:33.704Z,23.57
2018-11-10T01:37:34.300Z,23.47
2018-11-10T01:37:34.902Z,23.47
2018-11-10T01:37:35.500Z,23.47
2018-11-10T01:37:36.104Z,23.38
2018-11-10T01:37:36.701Z,23.47
2018-11-10T01:37:37.300Z,23.47
2018-11-10T01:37:37.900Z,23.66
2018-11-10T01:38:32.380Z,23.57
2018-11-10T01:38:32.975Z,23.47
2018-11-10T01:38:33.576Z,23.47
2018-11-10T01:38:34.174Z,23.47
2018-11-10T01:38:34.776Z,23.57
2018-11-10T01:38:35.375Z,23.47
2018-11-10T01:38:35.974Z,23.38
2018-11-10T01:38:36.579Z,23.57
2018-11-10T01:39:31.079Z,23.57
2018-11-10T01:39:31.652Z,23.38
2018-11-10T01:39:32.254Z,23.47
2018-11-10T01:39:32.851Z,23.38
2018-11-10T01:39:33.452Z,23.47
2018-11-10T01:39:34.050Z,23.38
2018-11-10T01:39:34.651Z,23.75
2018-11-10T01:39:35.249Z,23.57
2018-11-10T01:40:28.709Z,23.47
2018-11-10T01:40:29.305Z,23.28
2018-11-10T01:40:29.904Z,23.38
2018-11-10T01:40:30.503Z,23.57
2018-11-10T01:40:31.108Z,23.47
2018-11-10T01:40:31.705Z,23.00
2018-11-10T01:40:32.302Z,23.47
2018-11-10T01:40:32.904Z,23.00
2018-11-10T01:41:27.384Z,23.09
2018-11-10T01:41:27.979Z,23.09
2018-11-10T01:41:28.579Z,23.09
2018-11-10T01:41:29.179Z,23.09
2018-11-10T01:41:29.781Z,23.09
2018-11-10T01:41:30.378Z,23.09
2018-11-10T01:41:30.979Z,23.19
2018-11-10T01:41:31.582Z,23.19
2018-11-10T01:42:26.056Z,23.00
2018-11-10T01:42:26.656Z,23.00
2018-11-10T01:42:27.256Z,23.00
2018-11-10T01:42:27.855Z,23.00
2018-11-10T01:42:28.455Z,23.00
2018-11-10T01:42:29.055Z,23.09
2018-11-10T01:42:29.654Z,23.00
2018-11-10T01:42:30.257Z,22.90
2018-11-10T01:43:23.716Z,22.90
2018-11-10T01:43:24.308Z,22.90
2018-11-10T01:43:24.911Z,22.71
2018-11-10T01:43:25.506Z,22.90
2018-11-10T01:43:26.109Z,22.90
2018-11-10T01:43:26.706Z,22.80
2018-11-10T01:43:27.307Z,22.90
2018-11-10T01:43:27.906Z,22.71
2018-11-10T01:44:21.388Z,22.80
2018-11-10T01:44:21.960Z,23.00
2018-11-10T01:44:22.560Z,22.90
2018-11-10T01:44:23.159Z,22.90
2018-11-10T01:44:23.759Z,22.90
2018-11-10T01:44:24.362Z,22.90
2018-11-10T01:44:24.960Z,22.90
2018-11-10T01:44:25.559Z,23.00
2018-11-10T01:45:20.038Z,23.00
2018-11-10T01:45:20.635Z,23.00
2018-11-10T01:45:21.235Z,23.19
2018-11-10T01:45:21.836Z,23.19
2018-11-10T01:45:22.434Z,23.09
2018-11-10T01:45:23.034Z,23.09
2018-11-10T01:45:23.635Z,23.19
2018-11-10T01:45:24.234Z,23.09
2018-11-10T01:46:17.690Z,22.71
2018-11-10T01:46:18.289Z,22.71
2018-11-10T01:46:18.886Z,22.80
2018-11-10T01:46:19.488Z,22.71
2018-11-10T01:46:20.088Z,23.00
2018-11-10T01:46:20.686Z,22.71
2018-11-10T01:46:21.288Z,23.09
2018-11-10T01:46:21.888Z,22.71
2018-11-10T01:47:15.341Z,22.52
2018-11-10T01:47:15.939Z,22.61
2018-11-10T01:47:16.539Z,22.52
2018-11-10T01:47:17.138Z,22.71
2018-11-10T01:47:17.739Z,22.61
2018-11-10T01:47:18.340Z,22.61
2018-11-10T01:47:18.939Z,22.71
2018-11-10T01:47:19.538Z,22.71
2018-11-10T01:48:14.018Z,22.71
2018-11-10T01:48:14.616Z,22.71
2018-11-10T01:48:15.215Z,22.52
2018-11-10T01:48:15.813Z,22.71
2018-11-10T01:48:16.413Z,22.71
2018-11-10T01:48:17.013Z,22.71
2018-11-10T01:48:17.613Z,22.71
2018-11-10T01:48:18.212Z,22.61
2018-11-10T01:49:11.701Z,21.95
2018-11-10T01:49:12.266Z,22.05
2018-11-10T01:49:12.866Z,22.05
2018-11-10T01:49:13.466Z,22.14
2018-11-10T01:49:14.067Z,22.14
2018-11-10T01:49:14.667Z,22.24
2018-11-10T01:49:15.265Z,22.14
2018-11-10T01:49:15.865Z,22.24
2018-11-10T01:50:09.322Z,22.24
2018-11-10T01:50:09.918Z,22.05
2018-11-10T01:50:10.518Z,22.24
2018-11-10T01:50:11.122Z,22.24
2018-11-10T01:50:11.721Z,22.14
2018-11-10T01:50:12.319Z,22.24
2018-11-10T01:50:12.921Z,22.05
2018-11-10T01:50:13.517Z,22.14
2018-11-10T01:51:06.971Z,21.86
2018-11-10T01:51:07.569Z,22.24
2018-11-10T01:51:08.170Z,22.24
2018-11-10T01:51:08.770Z,22.33
2018-11-10T01:51:09.369Z,21.86
2018-11-10T01:51:09.970Z,21.76
2018-11-10T01:51:10.570Z,21.86
2018-11-10T01:51:11.168Z,21.86
2018-11-10T01:52:05.648Z,21.86
2018-11-10T01:52:06.248Z,22.05
2018-11-10T01:52:06.843Z,22.05
2018-11-10T01:52:07.442Z,21.95
2018-11-10T01:52:08.043Z,21.86
2018-11-10T01:52:08.643Z,21.76
2018-11-10T01:52:09.242Z,22.05
2018-11-10T01:52:09.842Z,22.05
2018-11-10T01:53:04.323Z,21.47
2018-11-10T01:53:04.921Z,21.57
2018-11-10T01:53:05.521Z,21.47
2018-11-10T01:53:06.121Z,21.47
2018-11-10T01:53:06.720Z,21.67
2018-11-10T01:53:07.320Z,21.67
2018-11-10T01:53:07.921Z,21.67
2018-11-10T01:53:08.519Z,21.67
2018-11-10T01:54:01.977Z,21.47
2018-11-10T01:54:02.575Z,21.67
2018-11-10T01:54:03.174Z,21.57
2018-11-10T01:54:03.776Z,21.76
2018-11-10T01:54:04.373Z,21.57
2018-11-10T01:54:04.975Z,21.47
2018-11-10T01:54:05.572Z,21.57
2018-11-10T01:54:06.172Z,21.57
2018-11-10T01:55:00.676Z,21.38
2018-11-10T01:55:01.248Z,21.47
2018-11-10T01:55:01.856Z,21.47
2018-11-10T01:55:02.448Z,21.38
2018-11-10T01:55:03.048Z,21.47
2018-11-10T01:55:03.647Z,21.38
2018-11-10T01:55:04.249Z,21.28
2018-11-10T01:55:04.848Z,21.09
2018-11-10T01:56:11.000Z,21.28
2018-11-10T01:56:11.597Z,21.28
2018-11-10T01:56:12.198Z,21.57
2018-11-10T01:56:12.797Z,21.67
2018-11-10T01:56:13.398Z,21.28
2018-11-10T01:56:13.999Z,21.67
2018-11-10T01:56:14.597Z,21.57
2018-11-10T01:56:15.196Z,21.47
2018-11-10T01:57:08.653Z,21.28
2018-11-10T01:57:09.251Z,21.28
2018-11-10T01:57:09.855Z,21.09
2018-11-10T01:57:10.450Z,21.19
2018-11-10T01:57:11.052Z,21.09
2018-11-10T01:57:11.655Z,21.28
2018-11-10T01:57:12.248Z,21.28
2018-11-10T01:57:12.848Z,21.19
2018-11-10T01:58:06.306Z,21.00
2018-11-10T01:58:06.902Z,20.90
2018-11-10T01:58:07.501Z,20.81
2018-11-10T01:58:08.102Z,21.00
2018-11-10T01:58:08.703Z,21.38
2018-11-10T01:58:09.302Z,20.90
2018-11-10T01:58:09.901Z,21.09
2018-11-10T01:58:10.501Z,21.09
2018-11-10T01:59:04.992Z,20.90
2018-11-10T01:59:05.579Z,20.90
2018-11-10T01:59:06.177Z,21.00
2018-11-10T01:59:06.776Z,20.90
2018-11-10T01:59:07.375Z,20.90
2018-11-10T01:59:07.976Z,20.90
2018-11-10T01:59:08.577Z,20.90
2018-11-10T01:59:09.176Z,21.00
2018-11-10T02:00:03.683Z,20.62
2018-11-10T02:00:04.259Z,20.43
2018-11-10T02:00:04.853Z,20.53
2018-11-10T02:00:05.453Z,20.62
2018-11-10T02:00:06.054Z,20.53
2018-11-10T02:00:06.654Z,20.62
2018-11-10T02:00:07.252Z,20.62
2018-11-10T02:00:07.852Z,20.62
2018-11-10T02:01:02.335Z,20.43
2018-11-10T02:01:02.928Z,20.72
2018-11-10T02:01:03.530Z,20.43
2018-11-10T02:01:04.129Z,20.53
2018-11-10T02:01:04.728Z,20.62
2018-11-10T02:01:05.330Z,20.53
2018-11-10T02:01:05.929Z,20.53
2018-11-10T02:01:06.529Z,20.53
2018-11-10T02:02:01.010Z,20.43
2018-11-10T02:02:01.605Z,20.43
2018-11-10T02:02:02.204Z,20.43
2018-11-10T02:02:02.804Z,20.43
2018-11-10T02:02:03.403Z,20.53
2018-11-10T02:02:04.005Z,19.86
2018-11-10T02:02:04.603Z,20.34
2018-11-10T02:02:05.203Z,20.62
2018-11-10T02:02:59.686Z,20.24
2018-11-10T02:03:00.280Z,20.24
2018-11-10T02:03:00.879Z,20.24
2018-11-10T02:03:01.481Z,20.24
2018-11-10T02:03:02.079Z,20.24
2018-11-10T02:03:02.680Z,20.14
2018-11-10T02:03:03.280Z,20.24
2018-11-10T02:03:03.882Z,20.24
2018-11-10T02:03:58.360Z,19.86
2018-11-10T02:03:58.957Z,19.76
2018-11-10T02:03:59.556Z,19.76
2018-11-10T02:04:00.156Z,19.86
2018-11-10T02:04:00.757Z,19.76
2018-11-10T02:04:01.356Z,19.76
2018-11-10T02:04:01.957Z,19.76
2018-11-10T02:04:02.554Z,19.67
2018-11-10T02:04:57.034Z,19.67
2018-11-10T02:04:57.647Z,19.67
2018-11-10T02:04:58.236Z,19.67
2018-11-10T02:04:58.831Z,19.67
2018-11-10T02:04:59.430Z,19.67
2018-11-10T02:05:00.031Z,19.67
2018-11-10T02:05:00.630Z,19.67
2018-11-10T02:05:01.233Z,19.67
2018-11-10T02:05:55.733Z,19.57
2018-11-10T02:05:56.307Z,19.57
2018-11-10T02:05:56.906Z,19.86
2018-11-10T02:05:57.508Z,19.67
2018-11-10T02:05:58.108Z,19.57
2018-11-10T02:05:58.708Z,19.86
2018-11-10T02:05:59.306Z,19.86
2018-11-10T02:05:59.907Z,19.76
2018-11-10T02:06:53.372Z,19.57
2018-11-10T02:06:53.998Z,19.57
2018-11-10T02:06:54.560Z,19.57
2018-11-10T02:06:55.165Z,19.29
2018-11-10T02:06:55.760Z,19.10
2018-11-10T02:06:56.360Z,19.20
2018-11-10T02:06:56.958Z,19.01
2018-11-10T02:06:57.559Z,19.10
2018-11-10T02:07:52.040Z,19.29
2018-11-10T02:07:52.635Z,19.10
2018-11-10T02:07:53.234Z,19.48
2018-11-10T02:07:53.845Z,19.38
2018-11-10T02:07:54.435Z,19.20
2018-11-10T02:07:55.035Z,19.48
2018-11-10T02:07:55.633Z,19.29
2018-11-10T02:07:56.234Z,19.20
2018-11-10T02:08:49.690Z,19.29
2018-11-10T02:08:50.290Z,19.29
2018-11-10T02:08:50.886Z,19.38
2018-11-10T02:08:51.486Z,19.38
2018-11-10T02:08:52.091Z,19.29
2018-11-10T02:08:52.685Z,19.38
2018-11-10T02:08:53.285Z,19.01
2018-11-10T02:08:53.892Z,19.10
2018-11-10T02:09:48.365Z,19.01
2018-11-10T02:09:48.961Z,18.81
2018-11-10T02:09:49.562Z,18.81
2018-11-10T02:09:50.163Z,18.72
2018-11-10T02:09:50.761Z,18.91
2018-11-10T02:09:51.360Z,19.10
2018-11-10T02:09:51.962Z,18.91
2018-11-10T02:09:52.562Z,18.72
2018-11-10T02:10:46.041Z,18.72
2018-11-10T02:10:46.615Z,18.72
2018-11-10T02:10:47.214Z,18.62
2018-11-10T02:10:47.814Z,18.72
2018-11-10T02:10:48.414Z,18.72
2018-11-10T02:10:49.015Z,18.62
2018-11-10T02:10:49.615Z,18.72
2018-11-10T02:10:50.215Z,18.72
2018-11-10T02:11:43.670Z,18.34
2018-11-10T02:11:44.267Z,18.43
2018-11-10T02:11:44.865Z,18.43
2018-11-10T02:11:45.465Z,18.72
2018-11-10T02:11:46.066Z,18.62
2018-11-10T02:11:46.666Z,18.53
2018-11-10T02:11:47.267Z,18.72
2018-11-10T02:11:47.865Z,18.81
2018-11-10T02:12:42.344Z,18.43
2018-11-10T02:12:42.940Z,18.43
2018-11-10T02:12:43.541Z,18.15
2018-11-10T02:12:44.141Z,18.15
2018-11-10T02:12:44.744Z,18.15
2018-11-10T02:12:45.342Z,18.15
2018-11-10T02:12:45.940Z,18.15
2018-11-10T02:12:46.541Z,18.15
2018-11-10T02:13:39.997Z,18.24
2018-11-10T02:13:40.599Z,18.53
2018-11-10T02:13:41.192Z,18.24
2018-11-10T02:13:41.792Z,18.24
2018-11-10T02:13:42.391Z,18.15
2018-11-10T02:13:42.992Z,18.43
2018-11-10T02:13:43.592Z,18.43
2018-11-10T02:13:44.191Z,18.15
2018-11-10T02:14:37.649Z,17.96
2018-11-10T02:14:38.246Z,17.96
2018-11-10T02:14:38.848Z,17.96
2018-11-10T02:14:39.445Z,17.96
2018-11-10T02:14:40.049Z,17.96
2018-11-10T02:14:40.645Z,18.15
2018-11-10T02:14:41.245Z,17.96
2018-11-10T02:14:41.845Z,18.05
2018-11-10T02:15:35.421Z,17.86
2018-11-10T02:15:35.919Z,17.77
2018-11-10T02:15:36.519Z,17.86
2018-11-10T02:15:37.119Z,17.87
2018-11-10T02:15:37.719Z,17.68
2018-11-10T02:15:38.318Z,17.87
2018-11-10T02:15:38.919Z,17.68
2018-11-10T02:15:39.518Z,17.78
2018-11-10T02:16:33.053Z,17.86
2018-11-10T02:16:33.652Z,17.86
2018-11-10T02:16:34.255Z,17.87
2018-11-10T02:16:34.851Z,17.86
2018-11-10T02:16:35.454Z,17.96
2018-11-10T02:16:36.051Z,17.86
2018-11-10T02:16:36.650Z,17.86
2018-11-10T02:16:37.251Z,17.86
2018-11-10T02:17:31.730Z,17.48
2018-11-10T02:17:32.326Z,17.48
2018-11-10T02:17:32.925Z,17.78
2018-11-10T02:17:33.525Z,17.48
2018-11-10T02:17:34.125Z,17.86
2018-11-10T02:17:34.726Z,17.48
2018-11-10T02:17:35.324Z,17.49
2018-11-10T02:17:35.925Z,17.39
2018-11-10T02:18:29.381Z,17.58
2018-11-10T02:18:29.979Z,17.49
2018-11-10T02:18:30.581Z,17.58
2018-11-10T02:18:31.178Z,17.39
2018-11-10T02:18:31.777Z,17.49
2018-11-10T02:18:32.376Z,17.49
2018-11-10T02:18:32.979Z,17.58
2018-11-10T02:18:33.577Z,17.40
2018-11-10T02:19:28.102Z,17.39
2018-11-10T02:19:28.681Z,17.29
2018-11-10T02:19:29.266Z,17.40
2018-11-10T02:19:29.853Z,17.77
2018-11-10T02:19:30.454Z,17.68
2018-11-10T02:19:31.054Z,17.58
2018-11-10T02:19:31.653Z,17.48
2018-11-10T02:19:32.252Z,17.40
2018-11-10T02:20:26.767Z,17.02
2018-11-10T02:20:27.329Z,17.11
2018-11-10T02:20:27.927Z,16.92
2018-11-10T02:20:28.529Z,17.01
2018-11-10T02:20:29.132Z,16.92
2018-11-10T02:20:29.727Z,16.92
2018-11-10T02:20:30.328Z,17.21
2018-11-10T02:20:30.928Z,16.91
2018-11-10T02:21:25.409Z,17.02
2018-11-10T02:21:26.006Z,17.11
2018-11-10T02:21:26.606Z,17.01
2018-11-10T02:21:27.203Z,17.11
2018-11-10T02:21:27.806Z,17.02
2018-11-10T02:21:28.406Z,16.91
2018-11-10T02:21:29.006Z,17.02
2018-11-10T02:21:29.603Z,17.10
2018-11-10T02:22:23.061Z,16.91
2018-11-10T02:22:23.658Z,16.92
2018-11-10T02:22:24.257Z,17.01
2018-11-10T02:22:24.859Z,16.91
2018-11-10T02:22:25.458Z,16.92
2018-11-10T02:22:26.058Z,16.73
2018-11-10T02:22:26.658Z,16.82
2018-11-10T02:22:27.257Z,16.83
2018-11-10T02:23:20.712Z,16.92
2018-11-10T02:23:21.310Z,16.53
2018-11-10T02:23:21.909Z,17.01
2018-11-10T02:23:22.511Z,16.83
2018-11-10T02:23:23.108Z,16.92
2018-11-10T02:23:23.709Z,16.83
2018-11-10T02:23:24.308Z,17.01
2018-11-10T02:23:24.909Z,16.92
2018-11-10T02:24:18.364Z,16.92
2018-11-10T02:24:18.960Z,16.92
2018-11-10T02:24:19.561Z,16.73
2018-11-10T02:24:20.161Z,16.83
2018-11-10T02:24:20.759Z,16.83
2018-11-10T02:24:21.362Z,16.83
2018-11-10T02:24:21.963Z,16.72
2018-11-10T02:24:22.559Z,16.83
2018-11-10T02:25:17.038Z,16.82
2018-11-10T02:25:17.636Z,16.91
2018-11-10T02:25:18.235Z,16.92
2018-11-10T02:25:18.835Z,16.63
2018-11-10T02:25:19.434Z,16.73
2018-11-10T02:25:20.036Z,16.73
2018-11-10T02:25:20.634Z,16.91
2018-11-10T02:25:21.267Z,16.73
2018-11-10T02:26:15.737Z,16.64
2018-11-10T02:26:16.318Z,16.83
2018-11-10T02:26:16.911Z,16.83
2018-11-10T02:26:17.511Z,16.72
2018-11-10T02:26:18.111Z,16.73
2018-11-10T02:26:18.712Z,16.83
2018-11-10T02:26:19.311Z,16.73
2018-11-10T02:26:19.913Z,16.64
2018-11-10T02:27:13.366Z,16.16
2018-11-10T02:27:13.965Z,16.16
2018-11-10T02:27:14.563Z,16.45
2018-11-10T02:27:15.164Z,16.06
2018-11-10T02:27:15.763Z,16.16
2018-11-10T02:27:16.364Z,16.54
2018-11-10T02:27:16.962Z,16.06
2018-11-10T02:27:17.563Z,16.06
2018-11-10T02:28:12.043Z,16.25
2018-11-10T02:28:12.639Z,16.25
2018-11-10T02:28:13.238Z,16.25
2018-11-10T02:28:13.839Z,16.25
2018-11-10T02:28:14.439Z,16.35
2018-11-10T02:28:15.038Z,16.35
2018-11-10T02:28:15.638Z,16.35
2018-11-10T02:28:16.242Z,16.35
2018-11-10T02:29:10.717Z,16.16
2018-11-10T02:29:11.314Z,16.16
2018-11-10T02:29:11.914Z,16.16
2018-11-10T02:29:12.514Z,16.35
2018-11-10T02:29:13.115Z,16.16
2018-11-10T02:29:13.716Z,16.35
2018-11-10T02:29:14.313Z,16.35
2018-11-10T02:29:14.913Z,16.16
2018-11-10T02:30:08.372Z,16.06
2018-11-10T02:30:08.967Z,16.25
2018-11-10T02:30:09.567Z,16.35
2018-11-10T02:30:10.165Z,16.06
2018-11-10T02:30:10.772Z,16.06
2018-11-10T02:30:11.368Z,16.45
2018-11-10T02:30:11.969Z,16.45
2018-11-10T02:30:12.571Z,16.45
2018-11-10T02:31:07.069Z,16.16
2018-11-10T02:31:07.647Z,16.16
2018-11-10T02:31:08.242Z,16.06
2018-11-10T02:31:08.854Z,16.06
2018-11-10T02:31:09.440Z,16.16
2018-11-10T02:31:10.047Z,15.97
2018-11-10T02:31:10.642Z,16.16
2018-11-10T02:31:11.240Z,16.06
2018-11-10T02:32:05.721Z,16.06
2018-11-10T02:32:06.320Z,16.16
2018-11-10T02:32:06.918Z,16.06
2018-11-10T02:32:07.517Z,16.06
2018-11-10T02:32:08.118Z,16.06
2018-11-10T02:32:08.718Z,16.16
2018-11-10T02:32:09.317Z,16.06
2018-11-10T02:32:09.917Z,16.06
2018-11-10T02:33:03.375Z,16.06
2018-11-10T02:33:03.970Z,16.06
2018-11-10T02:33:04.571Z,15.77
2018-11-10T02:33:05.170Z,16.06
2018-11-10T02:33:05.769Z,16.06
2018-11-10T02:33:06.369Z,16.16
2018-11-10T02:33:06.971Z,15.69
2018-11-10T02:33:07.569Z,16.06
2018-11-10T02:34:02.050Z,16.06
2018-11-10T02:34:02.650Z,15.68
2018-11-10T02:34:03.245Z,16.06
2018-11-10T02:34:03.845Z,16.06
2018-11-10T02:34:04.446Z,16.06
2018-11-10T02:34:05.046Z,16.06
2018-11-10T02:34:05.644Z,16.06
2018-11-10T02:34:06.244Z,16.15
2018-11-10T02:35:00.724Z,16.15
2018-11-10T02:35:01.322Z,16.06
2018-11-10T02:35:01.924Z,16.06
2018-11-10T02:35:02.523Z,16.06
2018-11-10T02:35:03.121Z,15.87
2018-11-10T02:35:03.720Z,16.06
2018-11-10T02:35:04.319Z,16.06
2018-11-10T02:35:04.929Z,15.96
2018-11-10T02:35:59.400Z,16.15
2018-11-10T02:35:59.996Z,15.96
2018-11-10T02:36:00.602Z,15.97
2018-11-10T02:36:01.196Z,16.06
2018-11-10T02:36:01.796Z,15.97
2018-11-10T02:36:02.397Z,15.96
2018-11-10T02:36:02.995Z,16.16
2018-11-10T02:36:03.594Z,15.96
2018-11-10T02:36:57.083Z,16.06
2018-11-10T02:36:57.649Z,15.88
2018-11-10T02:36:58.248Z,15.87
2018-11-10T02:36:58.848Z,16.06
2018-11-10T02:36:59.448Z,16.06
2018-11-10T02:37:00.050Z,16.06
2018-11-10T02:37:00.649Z,15.78
2018-11-10T02:37:01.248Z,16.06
2018-11-10T02:37:55.728Z,16.06
2018-11-10T02:37:56.324Z,16.25
2018-11-10T02:37:56.924Z,16.06
2018-11-10T02:37:57.522Z,16.06
2018-11-10T02:37:58.123Z,16.06
2018-11-10T02:37:58.722Z,15.96
2018-11-10T02:37:59.324Z,16.06
2018-11-10T02:37:59.924Z,15.87
2018-11-10T02:38:53.479Z,15.96
2018-11-10T02:38:54.095Z,15.96
2018-11-10T02:38:54.577Z,16.25
2018-11-10T02:38:55.184Z,16.06
2018-11-10T02:38:55.777Z,16.16
2018-11-10T02:38:56.378Z,16.06
2018-11-10T02:38:56.976Z,16.16
2018-11-10T02:38:57.576Z,16.06
2018-11-10T02:39:52.056Z,16.06
2018-11-10T02:39:52.652Z,16.15
2018-11-10T02:39:53.263Z,15.97
2018-11-10T02:39:53.855Z,16.06
2018-11-10T02:39:54.452Z,16.16
2018-11-10T02:39:55.051Z,16.06
2018-11-10T02:39:55.651Z,16.06
2018-11-10T02:39:56.251Z,16.06
2018-11-10T02:40:49.707Z,16.06
2018-11-10T02:40:50.308Z,16.15
2018-11-10T02:40:50.904Z,16.06
2018-11-10T02:40:51.504Z,16.06
2018-11-10T02:40:52.103Z,16.06
2018-11-10T02:40:52.703Z,16.16
2018-11-10T02:40:53.305Z,15.96
2018-11-10T02:40:53.902Z,16.06
2018-11-10T02:41:48.382Z,15.97
2018-11-10T02:41:48.981Z,16.25
2018-11-10T02:41:49.580Z,15.96
2018-11-10T02:41:50.177Z,16.06
2018-11-10T02:41:50.777Z,16.06
2018-11-10T02:41:51.379Z,16.06
2018-11-10T02:41:51.980Z,16.06
2018-11-10T02:41:52.580Z,16.25
2018-11-10T02:42:46.058Z,15.88
2018-11-10T02:42:46.632Z,15.78
2018-11-10T02:42:47.231Z,15.87
2018-11-10T02:42:47.833Z,15.97
2018-11-10T02:42:48.431Z,15.87
2018-11-10T02:42:49.031Z,15.88
2018-11-10T02:42:49.633Z,16.15
2018-11-10T02:42:50.233Z,15.88
2018-11-10T02:43:43.689Z,16.06
2018-11-10T02:43:44.282Z,16.06
2018-11-10T02:43:44.888Z,16.06
2018-11-10T02:43:45.485Z,16.06
2018-11-10T02:43:46.081Z,15.96
2018-11-10T02:43:46.682Z,15.88
2018-11-10T02:43:47.283Z,16.06
2018-11-10T02:43:47.882Z,15.87
2018-11-10T02:44:42.362Z,15.96
2018-11-10T02:44:42.958Z,16.06
2018-11-10T02:44:43.557Z,15.97
2018-11-10T02:44:44.157Z,15.97
2018-11-10T02:44:44.757Z,16.06
2018-11-10T02:44:45.360Z,15.96
2018-11-10T02:44:45.957Z,16.06
2018-11-10T02:44:46.558Z,16.06
2018-11-10T02:45:41.038Z,16.06
2018-11-10T02:45:41.635Z,16.15
2018-11-10T02:45:42.233Z,16.06
2018-11-10T02:45:42.834Z,16.16
2018-11-10T02:45:43.432Z,16.15
2018-11-10T02:45:44.034Z,16.15
2018-11-10T02:45:44.632Z,15.78
2018-11-10T02:45:45.234Z,16.06
2018-11-10T02:46:39.736Z,15.88
2018-11-10T02:46:40.310Z,16.06
2018-11-10T02:46:40.910Z,15.88
2018-11-10T02:46:41.508Z,16.06
2018-11-10T02:46:42.109Z,15.87
2018-11-10T02:46:42.710Z,15.97
2018-11-10T02:46:43.312Z,16.06
2018-11-10T02:46:43.906Z,16.06
2018-11-10T02:47:37.389Z,15.87
2018-11-10T02:47:37.962Z,15.88
2018-11-10T02:47:38.561Z,15.88
2018-11-10T02:47:39.164Z,15.78
2018-11-10T02:47:39.767Z,16.16
2018-11-10T02:47:40.361Z,16.06
2018-11-10T02:47:40.961Z,16.25
2018-11-10T02:47:41.563Z,16.06
2018-11-10T02:48:35.016Z,16.16
2018-11-10T02:48:35.614Z,16.16
2018-11-10T02:48:36.212Z,16.16
2018-11-10T02:48:36.813Z,15.97
2018-11-10T02:48:37.413Z,16.16
2018-11-10T02:48:38.013Z,16.16
2018-11-10T02:48:38.613Z,15.88
2018-11-10T02:48:39.213Z,16.16
2018-11-10T02:49:33.690Z,16.16
2018-11-10T02:49:34.291Z,16.06
2018-11-10T02:49:34.888Z,15.97
2018-11-10T02:49:35.488Z,16.06
2018-11-10T02:49:36.088Z,15.97
2018-11-10T02:49:36.688Z,15.88
2018-11-10T02:49:37.286Z,15.88
2018-11-10T02:49:37.888Z,15.88
2018-11-10T02:50:32.367Z,15.87
2018-11-10T02:50:32.964Z,16.06
2018-11-10T02:50:33.564Z,16.16
2018-11-10T02:50:34.164Z,16.06
2018-11-10T02:50:34.764Z,16.06
2018-11-10T02:50:35.363Z,15.88
2018-11-10T02:50:35.963Z,15.88
2018-11-10T02:50:36.564Z,16.06
2018-11-10T02:51:30.018Z,16.06
2018-11-10T02:51:30.617Z,16.06
2018-11-10T02:51:31.216Z,16.06
2018-11-10T02:51:31.816Z,16.06
2018-11-10T02:51:32.416Z,15.97
2018-11-10T02:51:33.017Z,15.88
2018-11-10T02:51:33.616Z,16.16
2018-11-10T02:51:34.218Z,15.88
2018-11-10T02:52:28.718Z,15.97
2018-11-10T02:52:29.295Z,15.97
2018-11-10T02:52:29.894Z,15.88
2018-11-10T02:52:30.516Z,15.97
2018-11-10T02:52:31.143Z,15.88
2018-11-10T02:52:31.698Z,15.97
2018-11-10T02:52:32.321Z,15.97
2018-11-10T02:52:32.949Z,15.88
2018-11-10T02:53:27.370Z,16.06
2018-11-10T02:53:27.966Z,16.06
2018-11-10T02:53:28.567Z,15.88
2018-11-10T02:53:29.166Z,15.69
2018-11-10T02:53:29.767Z,15.88
2018-11-10T02:53:30.367Z,16.06
2018-11-10T02:53:30.967Z,16.25
2018-11-10T02:53:31.567Z,16.06
2018-11-10T02:54:25.022Z,16.25
2018-11-10T02:54:25.622Z,16.45
2018-11-10T02:54:26.220Z,16.25
2018-11-10T02:54:26.820Z,16.45
2018-11-10T02:54:27.420Z,16.45
2018-11-10T02:54:28.026Z,16.25
2018-11-10T02:54:28.618Z,16.25
2018-11-10T02:54:29.218Z,16.35
2018-11-10T02:55:23.699Z,16.91
2018-11-10T02:55:24.295Z,16.83
2018-11-10T02:55:24.895Z,16.73
2018-11-10T02:55:25.496Z,16.45
2018-11-10T02:55:26.095Z,16.73
2018-11-10T02:55:26.695Z,16.73
2018-11-10T02:55:27.298Z,16.54
2018-11-10T02:55:27.896Z,16.83
2018-11-10T02:56:22.373Z,16.83
2018-11-10T02:56:22.973Z,16.91
2018-11-10T02:56:23.575Z,16.92
2018-11-10T02:56:24.170Z,16.92
2018-11-10T02:56:24.770Z,16.92
2018-11-10T02:56:25.371Z,16.92
2018-11-10T02:56:25.971Z,16.83
2018-11-10T02:56:26.570Z,16.83
2018-11-10T02:57:21.083Z,17.01
2018-11-10T02:57:21.646Z,17.30
2018-11-10T02:57:22.246Z,17.02
2018-11-10T02:57:22.847Z,17.02
2018-11-10T02:57:23.445Z,17.01
2018-11-10T02:57:24.044Z,17.29
2018-11-10T02:57:24.646Z,17.30
2018-11-10T02:57:25.247Z,17.40
2018-11-10T02:58:18.700Z,17.58
2018-11-10T02:58:19.300Z,17.68
2018-11-10T02:58:19.900Z,17.68
2018-11-10T02:58:20.499Z,17.58
2018-11-10T02:58:21.099Z,17.78
2018-11-10T02:58:21.701Z,17.58
2018-11-10T02:58:22.298Z,17.49
2018-11-10T02:58:22.898Z,17.68
2018-11-10T02:59:17.375Z,18.05
2018-11-10T02:59:17.975Z,18.06
2018-11-10T02:59:18.574Z,18.05
2018-11-10T02:59:19.174Z,18.05
2018-11-10T02:59:19.777Z,17.86
2018-11-10T02:59:20.375Z,18.05
2018-11-10T02:59:20.975Z,18.05
2018-11-10T02:59:21.573Z,18.05
2018-11-10T03:00:15.031Z,18.62
2018-11-10T03:00:15.626Z,18.62
2018-11-10T03:00:16.226Z,18.81
2018-11-10T03:00:16.828Z,18.81
2018-11-10T03:00:17.424Z,18.53
2018-11-10T03:00:18.023Z,18.72
2018-11-10T03:00:18.623Z,18.72
2018-11-10T03:00:19.227Z,18.91
2018-11-10T03:01:13.705Z,18.91
2018-11-10T03:01:14.300Z,19.01
2018-11-10T03:01:14.902Z,18.91
2018-11-10T03:01:15.500Z,18.92
2018-11-10T03:01:16.100Z,18.91
2018-11-10T03:01:16.703Z,18.91
2018-11-10T03:01:17.301Z,18.91
2018-11-10T03:01:17.901Z,18.91
2018-11-10T03:02:11.366Z,19.20
2018-11-10T03:02:11.954Z,19.20
2018-11-10T03:02:12.554Z,19.10
2018-11-10T03:02:13.152Z,19.20
2018-11-10T03:02:13.752Z,19.20
2018-11-10T03:02:14.353Z,19.20
2018-11-10T03:02:14.955Z,19.20
2018-11-10T03:02:15.552Z,19.20
2018-11-10T03:03:09.033Z,19.95
2018-11-10T03:03:09.605Z,19.95
2018-11-10T03:03:10.207Z,20.05
2018-11-10T03:03:10.805Z,19.76
2018-11-10T03:03:11.404Z,19.76